Canmore, Canada
Current Conditions -  °F | °C
As of 11:00 PM on Friday 24 Oct 2014 (Local Time) from CYBW Reporting Station
Broken Clouds Broken Clouds  
Wind Chill: 21°   Ceiling: 21000
Heat Index: 28°   Visibility: 9mi
Dew Point: 18°   Wind: 7mph
Humidity: 64%   Direction: 320°NW
Pressure: 30.01"   Gusts: NA
Location:  51.09°N, 115.36°W
Report Text: CYBW 250500Z AUTO 32006KT 9SM SCT180 BKN210 M02/M08 A3001 RMK SLP199
Loading
Personal Weather Stations






























Interactive Weather Map
Tropical Storm Tracking
New forecast layout! Learn more

10-Day Weather Forecast

Advertisements
Track Severe Weather on mobile